sensor_id;sensor_type;location;lat;lon;timestamp;temperature;humidity
18268;DHT22;9260;49.998;19.880;2022-09-30T00:09:26;8.30;99.90
18268;DHT22;9260;49.998;19.880;2022-09-30T00:19:31;8.40;99.90
18268;DHT22;9260;49.998;19.880;2022-09-30T00:29:34;8.40;99.90
18268;DHT22;9260;49.998;19.880;2022-09-30T00:39:38;8.40;99.90
18268;DHT22;9260;49.998;19.880;2022-09-30T00:49:42;8.40;99.90
18268;DHT22;9260;49.998;19.880;2022-09-30T00:59:48;8.40;99.90
18268;DHT22;9260;49.998;19.880;2022-09-30T01:09:53;8.50;99.90
18268;DHT22;9260;49.998;19.880;2022-09-30T01:20:26;8.50;99.90
18268;DHT22;9260;49.998;19.880;2022-09-30T01:31:03;8.50;99.90
18268;DHT22;9260;49.998;19.880;2022-09-30T01:41:16;8.40;99.90
18268;DHT22;9260;49.998;19.880;2022-09-30T01:51:31;8.40;99.90
18268;DHT22;9260;49.998;19.880;2022-09-30T02:01:43;8.40;99.90
18268;DHT22;9260;49.998;19.880;2022-09-30T02:11:52;8.50;99.90
18268;DHT22;9260;49.998;19.880;2022-09-30T02:22:01;8.50;99.90
18268;DHT22;9260;49.998;19.880;2022-09-30T02:32:17;8.50;99.90
18268;DHT22;9260;49.998;19.880;2022-09-30T02:42:25;8.50;99.90
18268;DHT22;9260;49.998;19.880;2022-09-30T02:52:42;8.50;99.90
18268;DHT22;9260;49.998;19.880;2022-09-30T03:02:53;8.40;99.90
18268;DHT22;9260;49.998;19.880;2022-09-30T03:13:22;8.50;99.90
18268;DHT22;9260;49.998;19.880;2022-09-30T03:24:10;8.70;99.90
18268;DHT22;9260;49.998;19.880;2022-09-30T03:34:43;8.80;99.90
18268;DHT22;9260;49.998;19.880;2022-09-30T03:45:01;8.80;99.90
18268;DHT22;9260;49.998;19.880;2022-09-30T03:55:10;8.80;99.90
18268;DHT22;9260;49.998;19.880;2022-09-30T04:05:13;8.90;99.90
18268;DHT22;9260;49.998;19.880;2022-09-30T04:15:18;8.90;99.90
18268;DHT22;9260;49.998;19.880;2022-09-30T04:25:22;8.90;99.90
18268;DHT22;9260;49.998;19.880;2022-09-30T04:35:26;9.00;99.90
18268;DHT22;9260;49.998;19.880;2022-09-30T04:45:31;9.00;99.90
18268;DHT22;9260;49.998;19.880;2022-09-30T04:55:35;9.00;99.90
18268;DHT22;9260;49.998;19.880;2022-09-30T05:05:42;9.10;99.90
18268;DHT22;9260;49.998;19.880;2022-09-30T05:15:48;9.10;99.90
18268;DHT22;9260;49.998;19.880;2022-09-30T05:25:53;9.20;99.90
18268;DHT22;9260;49.998;19.880;2022-09-30T05:36:00;9.30;99.90
18268;DHT22;9260;49.998;19.880;2022-09-30T05:46:04;9.40;99.90
18268;DHT22;9260;49.998;19.880;2022-09-30T05:56:10;9.60;99.90
18268;DHT22;9260;49.998;19.880;2022-09-30T06:06:14;9.70;99.90
18268;DHT22;9260;49.998;19.880;2022-09-30T06:16:19;9.90;99.90
18268;DHT22;9260;49.998;19.880;2022-09-30T06:26:22;10.20;99.90
18268;DHT22;9260;49.998;19.880;2022-09-30T06:36:27;10.20;99.90
18268;DHT22;9260;49.998;19.880;2022-09-30T06:46:30;10.20;99.90
18268;DHT22;9260;49.998;19.880;2022-09-30T06:56:35;10.30;99.90
18268;DHT22;9260;49.998;19.880;2022-09-30T07:06:39;10.50;99.90
18268;DHT22;9260;49.998;19.880;2022-09-30T07:16:44;10.80;99.90
18268;DHT22;9260;49.998;19.880;2022-09-30T07:26:47;10.80;99.90
18268;DHT22;9260;49.998;19.880;2022-09-30T07:36:52;10.60;99.90
18268;DHT22;9260;49.998;19.880;2022-09-30T07:46:55;10.50;99.90
18268;DHT22;9260;49.998;19.880;2022-09-30T07:57:02;10.60;99.90
18268;DHT22;9260;49.998;19.880;2022-09-30T08:07:12;10.90;99.90
18268;DHT22;9260;49.998;19.880;2022-09-30T08:17:18;11.10;99.90
18268;DHT22;9260;49.998;19.880;2022-09-30T08:27:21;11.10;99.90
18268;DHT22;9260;49.998;19.880;2022-09-30T08:37:26;11.20;99.90
18268;DHT22;9260;49.998;19.880;2022-09-30T08:47:37;11.30;99.90
18268;DHT22;9260;49.998;19.880;2022-09-30T08:57:47;11.40;99.90
18268;DHT22;9260;49.998;19.880;2022-09-30T09:07:57;11.20;99.90
18268;DHT22;9260;49.998;19.880;2022-09-30T09:18:26;11.30;99.90
18268;DHT22;9260;49.998;19.880;2022-09-30T09:28:40;11.40;99.90
18268;DHT22;9260;49.998;19.880;2022-09-30T09:39:04;11.70;99.90
18268;DHT22;9260;49.998;19.880;2022-09-30T09:49:30;11.60;99.90
18268;DHT22;9260;49.998;19.880;2022-09-30T09:59:37;11.40;99.90
18268;DHT22;9260;49.998;19.880;2022-09-30T10:10:10;11.60;99.90
18268;DHT22;9260;49.998;19.880;2022-09-30T10:20:31;12.00;99.90
18268;DHT22;9260;49.998;19.880;2022-09-30T10:30:39;12.40;99.90
18268;DHT22;9260;49.998;19.880;2022-09-30T10:40:48;12.20;99.90
18268;DHT22;9260;49.998;19.880;2022-09-30T10:50:52;11.90;99.90
18268;DHT22;9260;49.998;19.880;2022-09-30T11:01:06;11.90;99.90
18268;DHT22;9260;49.998;19.880;2022-09-30T11:11:23;11.90;99.90
18268;DHT22;9260;49.998;19.880;2022-09-30T11:21:39;11.90;99.90
18268;DHT22;9260;49.998;19.880;2022-09-30T11:31:49;12.20;99.90
18268;DHT22;9260;49.998;19.880;2022-09-30T11:42:05;12.30;99.90
18268;DHT22;9260;49.998;19.880;2022-09-30T11:52:16;12.60;99.90
18268;DHT22;9260;49.998;19.880;2022-09-30T12:02:30;13.10;99.90
18268;DHT22;9260;49.998;19.880;2022-09-30T12:12:38;13.30;99.90
18268;DHT22;9260;49.998;19.880;2022-09-30T12:22:44;12.90;99.90
18268;DHT22;9260;49.998;19.880;2022-09-30T12:33:12;12.70;99.90
18268;DHT22;9260;49.998;19.880;2022-09-30T12:54:45;13.10;99.90
18268;DHT22;9260;49.998;19.880;2022-09-30T13:04:51;13.50;99.90
18268;DHT22;9260;49.998;19.880;2022-09-30T13:25:53;13.20;99.90
18268;DHT22;9260;49.998;19.880;2022-09-30T13:36:04;12.90;99.90
18268;DHT22;9260;49.998;19.880;2022-09-30T13:46:16;12.90;99.90
18268;DHT22;9260;49.998;19.880;2022-09-30T13:56:31;12.90;99.90
18268;DHT22;9260;49.998;19.880;2022-09-30T14:06:45;14.00;99.90
18268;DHT22;9260;49.998;19.880;2022-09-30T14:17:19;15.00;99.90
18268;DHT22;9260;49.998;19.880;2022-09-30T14:27:44;14.80;99.90
18268;DHT22;9260;49.998;19.880;2022-09-30T14:37:56;13.70;99.90
18268;DHT22;9260;49.998;19.880;2022-09-30T14:48:05;13.10;99.90
18268;DHT22;9260;49.998;19.880;2022-09-30T14:58:22;12.60;99.90
18268;DHT22;9260;49.998;19.880;2022-09-30T15:08:31;12.50;99.90
18268;DHT22;9260;49.998;19.880;2022-09-30T15:18:43;12.20;99.90
18268;DHT22;9260;49.998;19.880;2022-09-30T15:28:48;12.00;99.90
18268;DHT22;9260;49.998;19.880;2022-09-30T15:38:52;12.10;99.90
18268;DHT22;9260;49.998;19.880;2022-09-30T15:48:58;12.20;99.90
18268;DHT22;9260;49.998;19.880;2022-09-30T15:59:05;12.00;99.90
18268;DHT22;9260;49.998;19.880;2022-09-30T16:09:27;11.80;99.90
18268;DHT22;9260;49.998;19.880;2022-09-30T16:19:37;11.70;99.90
18268;DHT22;9260;49.998;19.880;2022-09-30T16:29:46;11.50;99.90
18268;DHT22;9260;49.998;19.880;2022-09-30T16:39:49;11.40;99.90
18268;DHT22;9260;49.998;19.880;2022-09-30T16:49:55;11.30;99.90
18268;DHT22;9260;49.998;19.880;2022-09-30T16:59:58;11.30;99.90
18268;DHT22;9260;49.998;19.880;2022-09-30T17:10:04;11.20;99.90
18268;DHT22;9260;49.998;19.880;2022-09-30T17:20:10;11.00;99.90
18268;DHT22;9260;49.998;19.880;2022-09-30T17:30:17;10.90;99.90
18268;DHT22;9260;49.998;19.880;2022-09-30T17:40:22;10.90;99.90
18268;DHT22;9260;49.998;19.880;2022-09-30T17:50:46;11.00;99.90
18268;DHT22;9260;49.998;19.880;2022-09-30T18:00:52;10.80;99.90
18268;DHT22;9260;49.998;19.880;2022-09-30T18:11:00;10.80;99.90
18268;DHT22;9260;49.998;19.880;2022-09-30T18:21:04;10.70;99.90
18268;DHT22;9260;49.998;19.880;2022-09-30T18:31:11;10.70;99.90
18268;DHT22;9260;49.998;19.880;2022-09-30T18:41:29;10.70;99.90
18268;DHT22;9260;49.998;19.880;2022-09-30T18:51:37;10.80;99.90
18268;DHT22;9260;49.998;19.880;2022-09-30T19:01:42;10.80;99.90
18268;DHT22;9260;49.998;19.880;2022-09-30T19:11:48;10.80;99.90
18268;DHT22;9260;49.998;19.880;2022-09-30T19:21:53;10.80;99.90
18268;DHT22;9260;49.998;19.880;2022-09-30T19:32:03;10.80;99.90
18268;DHT22;9260;49.998;19.880;2022-09-30T19:42:10;10.80;99.90
18268;DHT22;9260;49.998;19.880;2022-09-30T19:52:17;10.80;99.90
18268;DHT22;9260;49.998;19.880;2022-09-30T20:02:23;10.80;99.90
18268;DHT22;9260;49.998;19.880;2022-09-30T20:12:29;10.80;99.90
18268;DHT22;9260;49.998;19.880;2022-09-30T20:22:35;10.80;99.90
18268;DHT22;9260;49.998;19.880;2022-09-30T20:32:40;10.80;99.90
18268;DHT22;9260;49.998;19.880;2022-09-30T20:42:43;10.70;99.90
18268;DHT22;9260;49.998;19.880;2022-09-30T20:52:48;10.70;99.90
18268;DHT22;9260;49.998;19.880;2022-09-30T21:02:51;10.60;99.90
18268;DHT22;9260;49.998;19.880;2022-09-30T21:12:57;10.60;99.90
18268;DHT22;9260;49.998;19.880;2022-09-30T21:23:02;10.50;99.90
18268;DHT22;9260;49.998;19.880;2022-09-30T21:33:06;10.50;99.90
18268;DHT22;9260;49.998;19.880;2022-09-30T21:43:10;10.50;99.90
18268;DHT22;9260;49.998;19.880;2022-09-30T21:53:14;10.50;99.90
18268;DHT22;9260;49.998;19.880;2022-09-30T22:03:18;10.50;99.90
18268;DHT22;9260;49.998;19.880;2022-09-30T22:13:23;10.40;99.90
18268;DHT22;9260;49.998;19.880;2022-09-30T22:23:26;10.30;99.90
18268;DHT22;9260;49.998;19.880;2022-09-30T22:33:31;10.10;99.90
18268;DHT22;9260;49.998;19.880;2022-09-30T22:43:52;10.00;99.90
18268;DHT22;9260;49.998;19.880;2022-09-30T22:53:58;9.80;99.90
18268;DHT22;9260;49.998;19.880;2022-09-30T23:04:02;9.70;99.90
18268;DHT22;9260;49.998;19.880;2022-09-30T23:14:06;9.60;99.90
18268;DHT22;9260;49.998;19.880;2022-09-30T23:24:10;9.50;99.90
18268;DHT22;9260;49.998;19.880;2022-09-30T23:34:15;9.50;99.90
18268;DHT22;9260;49.998;19.880;2022-09-30T23:44:19;9.50;99.90
18268;DHT22;9260;49.998;19.880;2022-09-30T23:54:23;9.60;99.90
